createdAt,value
2023-07-03T00:00:21.772Z,17.90
2023-07-03T00:02:44.085Z,17.80
2023-07-03T00:04:47.479Z,17.80
2023-07-03T00:06:50.330Z,17.80
2023-07-03T00:08:52.760Z,17.70
2023-07-03T00:11:05.422Z,17.70
2023-07-03T00:13:08.759Z,17.70
2023-07-03T00:15:11.946Z,17.60
2023-07-03T00:17:14.421Z,17.60
2023-07-03T00:19:16.929Z,17.60
2023-07-03T00:21:19.475Z,17.60
2023-07-03T00:23:26.532Z,17.60
2023-07-03T00:25:28.988Z,17.60
2023-07-03T00:27:31.159Z,17.50
2023-07-03T00:29:34.768Z,17.60
2023-07-03T00:31:36.906Z,17.60
2023-07-03T00:33:39.379Z,17.50
2023-07-03T00:35:41.842Z,17.50
2023-07-03T00:37:44.262Z,17.50
2023-07-03T00:39:46.545Z,17.40
2023-07-03T00:41:48.983Z,17.40
2023-07-03T00:43:51.974Z,17.40
2023-07-03T00:45:54.600Z,17.30
2023-07-03T00:47:57.941Z,17.30
2023-07-03T00:50:00.888Z,17.30
2023-07-03T00:52:03.931Z,17.30
2023-07-03T00:54:06.605Z,17.30
2023-07-03T00:56:09.089Z,17.20
2023-07-03T00:58:11.616Z,17.20
2023-07-03T01:00:14.444Z,17.20
2023-07-03T01:02:27.317Z,17.20
2023-07-03T01:04:46.684Z,17.10
2023-07-03T01:07:12.153Z,17.10
2023-07-03T01:09:17.475Z,17.10
2023-07-03T01:11:22.323Z,17.10
2023-07-03T01:13:26.931Z,17.10
2023-07-03T01:15:34.103Z,17.10
2023-07-03T01:17:38.953Z,17.00
2023-07-03T01:19:48.456Z,17.00
2023-07-03T01:21:59.540Z,17.00
2023-07-03T01:24:15.524Z,17.00
2023-07-03T01:26:20.264Z,17.00
2023-07-03T01:28:25.093Z,17.00
2023-07-03T01:30:28.161Z,16.90
2023-07-03T01:32:33.426Z,16.90
2023-07-03T01:34:36.442Z,16.90
2023-07-03T01:36:40.438Z,16.90
2023-07-03T01:38:48.243Z,16.90
2023-07-03T01:40:51.391Z,16.90
2023-07-03T01:42:55.300Z,16.80
2023-07-03T01:44:57.904Z,16.80
2023-07-03T01:47:13.027Z,16.80
2023-07-03T01:49:17.153Z,16.80
2023-07-03T01:51:32.713Z,16.70
2023-07-03T01:53:53.529Z,16.70
2023-07-03T01:56:12.160Z,16.80
2023-07-03T01:58:26.922Z,16.80
2023-07-03T02:00:41.816Z,16.80
2023-07-03T02:02:48.440Z,16.70
2023-07-03T02:05:17.330Z,16.70
2023-07-03T02:07:20.952Z,16.80
2023-07-03T02:09:23.229Z,16.70
2023-07-03T02:11:29.378Z,16.70
2023-07-03T02:13:31.540Z,16.70
2023-07-03T02:15:34.029Z,16.70
2023-07-03T02:17:37.333Z,16.70
2023-07-03T02:19:39.872Z,16.70
2023-07-03T02:21:45.829Z,16.70
2023-07-03T02:23:48.716Z,16.70
2023-07-03T02:25:51.131Z,16.80
2023-07-03T02:27:53.749Z,16.70
2023-07-03T02:29:55.827Z,16.70
2023-07-03T02:31:58.357Z,16.70
2023-07-03T02:34:00.597Z,16.70
2023-07-03T02:36:04.413Z,16.80
2023-07-03T02:38:06.698Z,16.80
2023-07-03T02:40:14.704Z,16.80
2023-07-03T02:42:17.105Z,16.80
2023-07-03T02:44:19.551Z,16.80
2023-07-03T02:46:21.745Z,16.80
2023-07-03T02:48:24.188Z,16.80
2023-07-03T02:50:26.358Z,16.90
2023-07-03T02:52:28.803Z,16.90
2023-07-03T02:54:31.030Z,16.90
2023-07-03T02:56:33.519Z,16.90
2023-07-03T02:58:36.297Z,16.90
2023-07-03T03:00:38.983Z,17.00
2023-07-03T03:02:43.696Z,17.10
2023-07-03T03:04:48.410Z,17.10
2023-07-03T03:06:50.572Z,17.20
2023-07-03T03:08:53.069Z,17.30
2023-07-03T03:10:55.639Z,17.40
2023-07-03T03:12:58.100Z,17.40
2023-07-03T03:15:00.443Z,17.50
2023-07-03T03:17:02.992Z,17.60
2023-07-03T03:19:05.336Z,17.70
2023-07-03T03:21:07.953Z,17.80
2023-07-03T03:23:10.151Z,17.90
2023-07-03T03:25:12.598Z,18.00
2023-07-03T03:27:15.756Z,18.10
2023-07-03T03:29:19.684Z,18.10
2023-07-03T03:31:22.014Z,18.30
2023-07-03T03:33:24.560Z,18.40
2023-07-03T03:35:26.782Z,18.50
2023-07-03T03:37:29.381Z,18.60
2023-07-03T03:39:31.594Z,18.60
2023-07-03T03:41:34.009Z,18.80
2023-07-03T03:43:36.240Z,18.90
2023-07-03T03:45:38.680Z,18.90
2023-07-03T03:47:40.892Z,19.10
2023-07-03T03:49:43.606Z,19.20
2023-07-03T03:51:45.956Z,19.20
2023-07-03T03:53:48.404Z,19.40
2023-07-03T03:55:52.499Z,19.50
2023-07-03T03:57:55.506Z,19.60
2023-07-03T03:59:57.727Z,19.70
2023-07-03T04:02:00.190Z,19.80
2023-07-03T04:04:02.880Z,19.90
2023-07-03T04:06:05.548Z,20.00
2023-07-03T04:08:07.823Z,20.20
2023-07-03T04:10:10.768Z,20.20
2023-07-03T04:12:12.906Z,20.30
2023-07-03T04:14:16.390Z,20.40
2023-07-03T04:16:18.992Z,20.50
2023-07-03T04:18:22.075Z,20.60
2023-07-03T04:20:26.630Z,20.80
2023-07-03T04:22:29.056Z,20.80
2023-07-03T04:24:31.302Z,21.00
2023-07-03T04:26:33.845Z,21.20
2023-07-03T04:28:36.061Z,21.40
2023-07-03T04:30:39.163Z,21.50
2023-07-03T04:32:41.389Z,21.80
2023-07-03T04:34:44.061Z,22.00
2023-07-03T04:36:49.087Z,22.20
2023-07-03T04:38:51.571Z,22.30
2023-07-03T04:40:55.066Z,22.50
2023-07-03T04:42:57.711Z,22.80
2023-07-03T04:45:02.202Z,22.90
2023-07-03T04:47:06.773Z,23.10
2023-07-03T04:49:09.409Z,23.30
2023-07-03T04:51:12.046Z,23.60
2023-07-03T04:53:14.381Z,23.60
2023-07-03T04:55:18.415Z,23.90
2023-07-03T04:57:21.118Z,24.10
2023-07-03T04:59:23.615Z,24.20
2023-07-03T05:01:26.351Z,24.40
2023-07-03T05:03:28.853Z,24.70
2023-07-03T05:05:31.307Z,24.80
2023-07-03T05:07:34.227Z,24.90
2023-07-03T05:09:36.498Z,25.20
2023-07-03T05:11:38.884Z,25.30
2023-07-03T05:13:41.138Z,25.40
2023-07-03T05:15:43.542Z,25.50
2023-07-03T05:17:53.995Z,25.70
2023-07-03T05:19:57.228Z,25.90
2023-07-03T05:21:59.475Z,26.00
2023-07-03T05:24:01.993Z,26.20
2023-07-03T05:26:04.740Z,26.40
2023-07-03T05:28:07.653Z,26.50
2023-07-03T05:30:11.378Z,26.60
2023-07-03T05:32:13.838Z,26.80
2023-07-03T05:34:16.257Z,26.80
2023-07-03T05:36:19.062Z,26.80
2023-07-03T05:38:21.567Z,27.00
2023-07-03T05:40:24.126Z,27.10
2023-07-03T05:42:26.578Z,27.20
2023-07-03T05:44:29.454Z,27.40
2023-07-03T05:46:31.594Z,27.30
2023-07-03T05:48:33.999Z,27.50
2023-07-03T05:50:36.185Z,27.50
2023-07-03T05:52:41.870Z,27.60
2023-07-03T05:54:44.048Z,27.70
2023-07-03T05:56:59.297Z,27.80
2023-07-03T05:59:01.555Z,28.00
2023-07-03T06:01:05.105Z,28.00
2023-07-03T06:03:07.381Z,28.00
2023-07-03T06:05:12.282Z,28.10
2023-07-03T06:07:14.806Z,28.20
2023-07-03T06:09:17.242Z,28.40
2023-07-03T06:11:19.406Z,28.40
2023-07-03T06:13:22.013Z,28.70
2023-07-03T06:15:24.222Z,28.80
2023-07-03T06:17:29.058Z,28.90
2023-07-03T06:19:31.494Z,29.00
2023-07-03T06:21:34.017Z,28.90
2023-07-03T06:23:36.171Z,28.80
2023-07-03T06:25:38.693Z,28.80
2023-07-03T06:27:41.150Z,28.80
2023-07-03T06:29:43.669Z,29.00
2023-07-03T06:31:45.968Z,29.00
2023-07-03T06:33:48.454Z,29.10
2023-07-03T06:35:52.282Z,29.30
2023-07-03T06:37:57.289Z,29.30
2023-07-03T06:39:59.681Z,29.10
2023-07-03T06:42:03.612Z,29.00
2023-07-03T06:44:07.409Z,29.20
2023-07-03T06:46:11.938Z,29.20
2023-07-03T06:48:14.256Z,29.10
2023-07-03T06:50:16.835Z,29.30
2023-07-03T06:52:19.018Z,29.60
2023-07-03T06:54:22.229Z,29.70
2023-07-03T06:56:25.315Z,30.00
2023-07-03T06:58:29.091Z,30.00
2023-07-03T07:00:31.236Z,29.80
2023-07-03T07:02:33.642Z,30.10
2023-07-03T07:04:35.828Z,29.50
2023-07-03T07:06:40.402Z,29.70
2023-07-03T07:08:43.033Z,29.70
2023-07-03T07:10:46.151Z,29.80
2023-07-03T07:12:48.318Z,29.90
2023-07-03T07:14:50.747Z,29.50
2023-07-03T07:21:01.383Z,30.40
2023-07-03T07:31:22.931Z,30.80
2023-07-03T07:41:37.259Z,31.30
2023-07-03T07:53:54.964Z,29.80
2023-07-03T08:00:06.506Z,30.00
2023-07-03T08:06:15.152Z,30.70
2023-07-03T08:10:20.746Z,30.90
2023-07-03T08:12:23.327Z,31.50
2023-07-03T08:22:39.558Z,30.40
2023-07-03T08:26:50.223Z,30.60
2023-07-03T08:28:52.729Z,30.60
2023-07-03T08:30:55.169Z,31.00
2023-07-03T08:32:58.351Z,30.90
2023-07-03T08:37:08.679Z,30.70
2023-07-03T08:39:11.240Z,30.70
2023-07-03T08:41:15.198Z,30.60
2023-07-03T08:43:20.922Z,29.80
2023-07-03T08:45:31.041Z,30.00
2023-07-03T08:47:35.367Z,29.90
2023-07-03T08:49:38.331Z,29.80
2023-07-03T08:51:41.181Z,29.20
2023-07-03T08:53:45.234Z,29.00
2023-07-03T08:55:57.149Z,29.00
2023-07-03T09:00:06.384Z,29.50
2023-07-03T09:02:15.871Z,29.40
2023-07-03T09:04:48.870Z,29.80
2023-07-03T09:06:57.157Z,29.80
2023-07-03T09:09:16.256Z,29.70
2023-07-03T09:13:27.979Z,30.00
2023-07-03T09:15:36.658Z,30.20
2023-07-03T09:19:46.092Z,30.30
2023-07-03T09:21:54.138Z,30.00
2023-07-03T09:24:14.735Z,29.50
2023-07-03T09:32:30.895Z,28.80
2023-07-03T09:35:01.067Z,28.70
2023-07-03T09:37:07.419Z,28.50
2023-07-03T09:39:19.192Z,28.40
2023-07-03T09:41:34.992Z,27.90
2023-07-03T09:43:45.123Z,27.50
2023-07-03T09:47:57.219Z,27.00
2023-07-03T09:50:07.868Z,26.70
2023-07-03T09:54:26.943Z,26.30
2023-07-03T09:56:31.270Z,26.70
2023-07-03T10:00:48.025Z,25.90
2023-07-03T10:07:09.109Z,25.10
2023-07-03T10:11:38.162Z,25.10
2023-07-03T10:13:52.944Z,24.80
2023-07-03T10:15:56.900Z,24.50
2023-07-03T10:18:18.082Z,24.60
2023-07-03T10:20:28.790Z,24.60
2023-07-03T10:22:31.577Z,24.90
2023-07-03T10:26:45.009Z,25.10
2023-07-03T10:30:55.143Z,26.30
2023-07-03T10:33:01.234Z,26.40
2023-07-03T10:35:17.803Z,26.70
2023-07-03T10:37:23.212Z,26.50
2023-07-03T10:39:50.115Z,26.20
2023-07-03T10:41:59.052Z,26.20
2023-07-03T10:44:12.406Z,26.00
2023-07-03T10:46:24.250Z,25.80
2023-07-03T10:48:34.011Z,25.50
2023-07-03T10:51:01.476Z,25.30
2023-07-03T10:53:22.753Z,25.00
2023-07-03T10:55:33.936Z,25.40
2023-07-03T10:57:48.952Z,25.20
2023-07-03T10:59:54.427Z,25.40
2023-07-03T11:01:56.661Z,25.20
2023-07-03T11:06:32.084Z,25.80
2023-07-03T11:08:55.638Z,25.90
2023-07-03T11:11:23.690Z,25.80
2023-07-03T11:13:33.090Z,25.90
2023-07-03T11:23:19.807Z,26.20
2023-07-03T11:25:28.913Z,26.50
2023-07-03T11:29:54.854Z,26.40
2023-07-03T11:31:58.528Z,26.10
2023-07-03T11:36:06.977Z,25.90
2023-07-03T11:40:37.519Z,26.20
2023-07-03T11:44:49.357Z,26.50
2023-07-03T11:46:53.273Z,26.70
2023-07-03T11:48:58.209Z,26.90
2023-07-03T11:51:16.308Z,26.80
2023-07-03T11:54:13.532Z,27.00
2023-07-03T11:56:36.911Z,27.20
2023-07-03T11:58:39.733Z,26.90
2023-07-03T12:00:42.612Z,27.00
2023-07-03T12:02:55.119Z,24.80
2023-07-03T12:04:58.467Z,26.90
2023-07-03T12:07:06.998Z,26.80
2023-07-03T12:09:42.779Z,25.80
2023-07-03T12:12:01.009Z,26.40
2023-07-03T12:14:13.065Z,26.10
2023-07-03T12:16:28.280Z,26.10
2023-07-03T12:18:31.094Z,25.90
2023-07-03T12:20:37.501Z,25.70
2023-07-03T12:22:48.650Z,25.80
2023-07-03T12:25:01.671Z,25.60
2023-07-03T12:27:07.530Z,25.50
2023-07-03T12:29:10.073Z,25.70
2023-07-03T12:31:13.095Z,25.70
2023-07-03T12:33:20.090Z,26.00
2023-07-03T12:35:49.525Z,26.30
2023-07-03T12:37:58.313Z,26.70
2023-07-03T12:40:01.504Z,26.90
2023-07-03T12:42:16.702Z,26.80
2023-07-03T12:44:23.764Z,26.40
2023-07-03T12:46:33.250Z,26.10
2023-07-03T12:48:35.490Z,25.90
2023-07-03T12:51:04.270Z,25.70
2023-07-03T12:53:06.768Z,25.70
2023-07-03T12:55:15.581Z,25.40
2023-07-03T12:57:18.551Z,25.30
2023-07-03T12:59:23.563Z,25.30
2023-07-03T13:01:28.040Z,25.30
2023-07-03T13:03:30.581Z,25.30
2023-07-03T13:08:03.204Z,25.50
2023-07-03T13:10:14.836Z,25.50
2023-07-03T13:12:23.088Z,25.80
2023-07-03T13:14:27.903Z,26.00
2023-07-03T13:16:35.944Z,26.10
2023-07-03T13:18:38.080Z,26.30
2023-07-03T13:21:00.448Z,26.10
2023-07-03T13:23:06.095Z,26.10
2023-07-03T13:25:11.712Z,26.00
2023-07-03T13:27:23.101Z,25.90
2023-07-03T13:29:33.610Z,25.60
2023-07-03T13:31:50.566Z,25.60
2023-07-03T13:34:16.245Z,25.70
2023-07-03T13:36:28.171Z,25.80
2023-07-03T13:38:32.124Z,25.90
2023-07-03T13:40:34.272Z,26.10
2023-07-03T13:42:36.854Z,26.20
2023-07-03T13:44:38.983Z,26.40
2023-07-03T13:46:42.781Z,26.60
2023-07-03T13:48:45.008Z,26.60
2023-07-03T13:50:50.415Z,26.30
2023-07-03T13:52:54.194Z,26.20
2023-07-03T13:54:56.625Z,26.10
2023-07-03T13:56:58.864Z,25.90
2023-07-03T13:59:02.623Z,25.70
2023-07-03T14:01:21.145Z,25.60
2023-07-03T14:03:28.567Z,25.50
2023-07-03T14:05:30.834Z,25.50
2023-07-03T14:07:33.228Z,25.60
2023-07-03T14:09:35.333Z,25.70
2023-07-03T14:11:37.838Z,25.70
2023-07-03T14:13:44.901Z,25.90
2023-07-03T14:15:47.901Z,25.90
2023-07-03T14:17:50.355Z,26.00
2023-07-03T14:19:52.995Z,25.90
2023-07-03T14:21:55.282Z,25.80
2023-07-03T14:23:58.353Z,25.80
2023-07-03T14:26:10.593Z,25.70
2023-07-03T14:28:19.269Z,25.60
2023-07-03T14:30:21.531Z,25.50
2023-07-03T14:32:35.947Z,25.60
2023-07-03T14:34:46.334Z,25.50
2023-07-03T14:36:48.930Z,25.60
2023-07-03T14:38:51.207Z,25.50
2023-07-03T14:40:54.106Z,25.60
2023-07-03T14:42:56.638Z,25.70
2023-07-03T14:44:59.755Z,25.80
2023-07-03T14:47:03.835Z,25.60
2023-07-03T14:49:06.622Z,25.60
2023-07-03T14:51:08.899Z,25.70
2023-07-03T14:53:11.383Z,25.90
2023-07-03T14:55:14.913Z,26.00
2023-07-03T14:57:17.418Z,26.10
2023-07-03T14:59:19.652Z,26.00
2023-07-03T15:01:22.223Z,26.10
2023-07-03T15:03:24.572Z,26.10
2023-07-03T15:05:27.081Z,26.20
2023-07-03T15:07:29.339Z,26.30
2023-07-03T15:09:35.707Z,26.30
2023-07-03T15:11:37.983Z,26.30
2023-07-03T15:13:40.525Z,26.30
2023-07-03T15:15:50.108Z,26.30
2023-07-03T15:17:53.501Z,26.20
2023-07-03T15:19:56.262Z,26.10
2023-07-03T15:21:59.360Z,26.00
2023-07-03T15:24:04.544Z,25.90
2023-07-03T15:26:09.001Z,25.90
2023-07-03T15:28:11.266Z,25.70
2023-07-03T15:30:13.844Z,25.70
2023-07-03T15:32:16.315Z,25.60
2023-07-03T15:34:20.675Z,25.60
2023-07-03T15:36:23.909Z,25.40
2023-07-03T15:38:30.082Z,25.40
2023-07-03T15:40:32.237Z,25.40
2023-07-03T15:42:37.364Z,25.40
2023-07-03T15:44:39.789Z,25.60
2023-07-03T15:46:42.839Z,25.70
2023-07-03T15:48:47.478Z,25.70
2023-07-03T15:50:59.617Z,25.70
2023-07-03T15:53:01.837Z,25.70
2023-07-03T15:55:05.489Z,25.90
2023-07-03T15:57:08.128Z,25.80
2023-07-03T15:59:12.220Z,25.70
2023-07-03T16:01:19.258Z,25.80
2023-07-03T16:03:22.039Z,25.80
2023-07-03T16:05:24.704Z,25.80
2023-07-03T16:07:28.504Z,25.80
2023-07-03T16:09:30.791Z,25.60
2023-07-03T16:11:36.439Z,25.60
2023-07-03T16:13:39.595Z,25.50
2023-07-03T16:15:42.637Z,25.50
2023-07-03T16:17:45.303Z,25.50
2023-07-03T16:20:10.317Z,25.50
2023-07-03T16:22:13.285Z,25.60
2023-07-03T16:24:15.855Z,25.60
2023-07-03T16:26:18.260Z,25.50
2023-07-03T16:28:21.174Z,25.60
2023-07-03T16:30:25.266Z,25.60
2023-07-03T16:32:31.052Z,25.60
2023-07-03T16:34:33.619Z,25.60
2023-07-03T16:36:36.306Z,25.60
2023-07-03T16:38:38.840Z,25.60
2023-07-03T16:40:42.535Z,25.60
2023-07-03T16:42:46.963Z,25.60
2023-07-03T16:44:49.600Z,25.60
2023-07-03T16:46:51.791Z,25.60
2023-07-03T16:48:56.108Z,25.50
2023-07-03T16:51:00.044Z,25.50
2023-07-03T16:53:02.664Z,25.40
2023-07-03T16:55:05.117Z,25.50
2023-07-03T16:57:07.668Z,25.50
2023-07-03T16:59:09.874Z,25.40
2023-07-03T17:01:16.071Z,25.40
2023-07-03T17:03:18.364Z,25.40
2023-07-03T17:05:22.175Z,25.30
2023-07-03T17:07:25.552Z,25.30
2023-07-03T17:09:27.948Z,25.30
2023-07-03T17:11:31.374Z,25.20
2023-07-03T17:13:34.336Z,25.20
2023-07-03T17:15:36.620Z,25.20
2023-07-03T17:17:41.127Z,25.10
2023-07-03T17:19:43.415Z,25.10
2023-07-03T17:21:45.946Z,25.00
2023-07-03T17:23:51.119Z,25.00
2023-07-03T17:25:55.558Z,25.00
2023-07-03T17:27:57.920Z,25.00
2023-07-03T17:30:00.424Z,24.90
2023-07-03T17:32:02.721Z,24.90
2023-07-03T17:34:05.404Z,24.80
2023-07-03T17:36:07.702Z,24.80
2023-07-03T17:38:10.274Z,24.70
2023-07-03T17:40:13.012Z,24.60
2023-07-03T17:42:15.451Z,24.60
2023-07-03T17:44:18.080Z,24.60
2023-07-03T17:46:20.561Z,24.50
2023-07-03T17:48:23.002Z,24.50
2023-07-03T17:50:25.527Z,24.40
2023-07-03T17:52:27.684Z,24.40
2023-07-03T17:54:30.415Z,24.30
2023-07-03T17:56:32.651Z,24.30
2023-07-03T17:58:35.611Z,24.30
2023-07-03T18:00:37.913Z,24.20
2023-07-03T18:02:40.492Z,24.10
2023-07-03T18:04:42.725Z,24.10
2023-07-03T18:06:45.241Z,24.10
2023-07-03T18:08:47.534Z,23.90
2023-07-03T18:10:50.333Z,23.90
2023-07-03T18:12:52.566Z,23.80
2023-07-03T18:14:55.061Z,23.70
2023-07-03T18:16:57.534Z,23.70
2023-07-03T18:19:00.083Z,23.60
2023-07-03T18:21:02.353Z,23.50
2023-07-03T18:23:04.855Z,23.50
2023-07-03T18:25:07.527Z,23.40
2023-07-03T18:27:10.038Z,23.40
2023-07-03T18:29:12.262Z,23.30
2023-07-03T18:31:14.925Z,23.20
2023-07-03T18:33:17.190Z,23.20
2023-07-03T18:35:19.564Z,23.20
2023-07-03T18:37:21.797Z,23.00
2023-07-03T18:39:24.221Z,22.90
2023-07-03T18:41:26.467Z,22.90
2023-07-03T18:43:28.990Z,22.90
2023-07-03T18:45:31.136Z,22.80
2023-07-03T18:47:33.739Z,22.70
2023-07-03T18:49:35.932Z,22.70
2023-07-03T18:51:38.436Z,22.60
2023-07-03T18:53:40.934Z,22.60
2023-07-03T18:55:47.692Z,22.50
2023-07-03T18:57:50.049Z,22.50
2023-07-03T18:59:52.460Z,22.50
2023-07-03T19:01:54.599Z,22.50
2023-07-03T19:03:57.282Z,22.40
2023-07-03T19:06:00.404Z,22.40
2023-07-03T19:08:02.923Z,22.40
2023-07-03T19:12:11.300Z,22.30
2023-07-03T19:14:13.700Z,22.30
2023-07-03T19:16:16.369Z,22.30
2023-07-03T19:18:18.577Z,22.20
2023-07-03T19:20:21.272Z,22.20
2023-07-03T19:22:23.584Z,22.20
2023-07-03T19:24:26.066Z,22.20
2023-07-03T19:26:30.632Z,22.10
2023-07-03T19:28:33.077Z,22.10
2023-07-03T19:30:35.325Z,22.00
2023-07-03T19:32:38.193Z,22.10
2023-07-03T19:34:42.980Z,21.90
2023-07-03T19:36:45.582Z,21.90
2023-07-03T19:38:48.065Z,21.80
2023-07-03T19:40:50.624Z,21.70
2023-07-03T19:42:52.899Z,21.70
2023-07-03T19:44:55.359Z,21.70
2023-07-03T19:46:57.591Z,21.60
2023-07-03T19:49:01.935Z,21.60
2023-07-03T19:51:04.289Z,21.50
2023-07-03T19:53:09.981Z,21.50
2023-07-03T19:55:12.166Z,21.50
2023-07-03T19:57:14.737Z,21.50
2023-07-03T19:59:17.264Z,21.50
2023-07-03T20:01:19.842Z,21.40
2023-07-03T20:03:22.917Z,21.30
2023-07-03T20:05:25.482Z,21.30
2023-07-03T20:07:27.683Z,21.30
2023-07-03T20:09:31.422Z,21.20
2023-07-03T20:11:33.701Z,21.10
2023-07-03T20:13:36.390Z,21.10
2023-07-03T20:15:44.691Z,21.10
2023-07-03T20:17:47.858Z,21.00
2023-07-03T20:19:54.583Z,21.00
2023-07-03T20:21:57.216Z,20.90
2023-07-03T20:23:59.430Z,20.80
2023-07-03T20:26:04.646Z,20.80
2023-07-03T20:28:07.389Z,20.80
2023-07-03T20:30:10.584Z,20.80
2023-07-03T20:32:12.987Z,20.80
2023-07-03T20:34:15.812Z,20.80
2023-07-03T20:36:19.274Z,20.70
2023-07-03T20:38:21.790Z,20.70
2023-07-03T20:40:23.972Z,20.70
2023-07-03T20:42:28.457Z,20.60
2023-07-03T20:44:34.733Z,20.70
2023-07-03T20:46:37.308Z,20.60
2023-07-03T20:48:40.337Z,20.60
2023-07-03T20:50:51.278Z,20.60
2023-07-03T20:53:00.576Z,20.60
2023-07-03T20:55:08.131Z,20.60
2023-07-03T20:57:10.905Z,20.60
2023-07-03T20:59:13.541Z,20.60
2023-07-03T21:01:32.263Z,20.60
2023-07-03T21:03:35.025Z,20.60
2023-07-03T21:05:40.954Z,20.50
2023-07-03T21:07:45.160Z,20.50
2023-07-03T21:09:48.412Z,20.40
2023-07-03T21:11:51.432Z,20.40
2023-07-03T21:13:55.535Z,20.40
2023-07-03T21:16:01.713Z,20.40
2023-07-03T21:18:04.774Z,20.40
2023-07-03T21:20:08.649Z,20.30
2023-07-03T21:22:11.018Z,20.30
2023-07-03T21:24:13.825Z,20.30
2023-07-03T21:26:19.137Z,20.30
2023-07-03T21:28:21.891Z,20.30
2023-07-03T21:30:24.345Z,20.30
2023-07-03T21:32:28.304Z,20.30
2023-07-03T21:34:30.536Z,20.30
2023-07-03T21:36:33.930Z,20.30
2023-07-03T21:38:38.976Z,20.30
2023-07-03T21:40:55.292Z,20.30
2023-07-03T21:42:57.998Z,20.30
2023-07-03T21:45:00.874Z,20.20
2023-07-03T21:47:03.379Z,20.20
2023-07-03T21:49:06.156Z,20.20
2023-07-03T21:51:11.885Z,20.20
2023-07-03T21:53:14.659Z,20.20
2023-07-03T21:55:18.251Z,20.20
2023-07-03T21:57:20.779Z,20.10
2023-07-03T21:59:23.066Z,20.10
2023-07-03T22:01:34.880Z,20.10
2023-07-03T22:03:37.179Z,20.10
2023-07-03T22:05:39.683Z,20.00
2023-07-03T22:07:43.515Z,20.00
2023-07-03T22:09:46.654Z,19.90
2023-07-03T22:11:49.034Z,19.90
2023-07-03T22:13:52.028Z,19.90
2023-07-03T22:15:54.363Z,19.90
2023-07-03T22:17:57.101Z,19.80
2023-07-03T22:19:59.420Z,19.90
2023-07-03T22:22:01.825Z,20.00
2023-07-03T22:24:04.175Z,19.90
2023-07-03T22:26:06.718Z,19.90
2023-07-03T22:28:08.871Z,19.90
2023-07-03T22:30:11.840Z,19.90
2023-07-03T22:32:14.665Z,19.80
2023-07-03T22:34:17.165Z,19.80
2023-07-03T22:36:19.358Z,19.70
2023-07-03T22:38:21.811Z,19.70
2023-07-03T22:40:24.008Z,19.70
2023-07-03T22:42:26.491Z,19.60
2023-07-03T22:44:28.726Z,19.60
2023-07-03T22:46:31.231Z,19.50
2023-07-03T22:48:33.929Z,19.50
2023-07-03T22:50:40.677Z,19.50
2023-07-03T22:52:47.555Z,19.50
2023-07-03T22:54:51.033Z,19.40
2023-07-03T22:56:53.437Z,19.40
2023-07-03T22:58:56.130Z,19.40
2023-07-03T23:00:58.631Z,19.40
2023-07-03T23:03:01.183Z,19.40
2023-07-03T23:05:03.426Z,19.40
2023-07-03T23:07:06.365Z,19.40
2023-07-03T23:09:09.835Z,19.40
2023-07-03T23:11:12.390Z,19.30
2023-07-03T23:13:14.556Z,19.30
2023-07-03T23:15:18.218Z,19.30
2023-07-03T23:17:28.591Z,19.20
2023-07-03T23:19:32.673Z,19.20
2023-07-03T23:21:37.100Z,19.10
2023-07-03T23:23:40.145Z,19.10
2023-07-03T23:25:42.382Z,19.10
2023-07-03T23:27:46.397Z,19.10
2023-07-03T23:29:49.797Z,19.10
2023-07-03T23:31:52.588Z,19.10
2023-07-03T23:33:54.710Z,19.00
2023-07-03T23:35:58.268Z,18.90
2023-07-03T23:38:00.410Z,18.70
2023-07-03T23:40:03.069Z,18.70
2023-07-03T23:42:09.715Z,18.80
2023-07-03T23:44:12.223Z,18.70
2023-07-03T23:46:14.708Z,18.70
2023-07-03T23:48:18.292Z,18.50
2023-07-03T23:50:20.407Z,18.50
2023-07-03T23:52:23.634Z,18.50
2023-07-03T23:54:26.472Z,18.50
2023-07-03T23:56:28.926Z,18.40
2023-07-03T23:58:31.602Z,18.30
